Time;durP1;ratioP1;P1;durP2;ratioP2;P2;SDS_P1;SDS_P2;PMS_P1;PMS_P2;Temp;Humidity;BMP_temperature;BMP_pressure;BME280_temperature;BME280_humidity;BME280_pressure;Samples;Min_cycle;Max_cycle;Signal;HPM_P1;HPM_P2
2022/11/04 00:01:59;;;;;;;10.23;5.62;;;;;;;8.98;100.00;99763.77;1748224;81;21062;-72
2022/11/04 00:04:26;;;;;;;13.38;5.03;;;;;;;8.98;100.00;99758.87;1701517;83;21098;-72
2022/11/04 00:06:55;;;;;;;10.80;5.30;;;;;;;9.04;100.00;99761.06;1700249;84;21581;-72
2022/11/04 00:09:26;;;;;;;7.75;4.80;;;;;;;9.01;100.00;99755.63;1702917;84;21038;-72
2022/11/04 00:14:38;;;;;;;10.50;5.00;;;;;;;9.06;100.00;99749.42;1701758;84;21066;-72
2022/11/04 00:17:23;;;;;;;10.65;6.20;;;;;;;9.05;100.00;99746.42;1705332;84;21037;-71
2022/11/04 00:33:50;;;;;;;10.23;5.40;;;;;;;8.96;100.00;99741.47;1710179;80;72750;-71
2022/11/04 00:36:16;;;;;;;9.83;5.08;;;;;;;8.98;100.00;99738.50;1715232;82;22255;-71
2022/11/04 00:38:43;;;;;;;9.18;5.37;;;;;;;9.04;100.00;99740.16;1726598;81;21536;-70
2022/11/04 00:41:27;;;;;;;11.35;6.00;;;;;;;9.06;100.00;99741.27;1743352;82;21544;-71
2022/11/04 00:44:03;;;;;;;8.93;5.55;;;;;;;9.02;100.00;99742.87;1745216;82;21141;-70
2022/11/04 00:46:32;;;;;;;9.58;5.65;;;;;;;8.97;100.00;99732.78;1735424;82;21041;-70
2022/11/04 00:48:58;;;;;;;11.48;5.37;;;;;;;9.02;100.00;99737.44;1744293;81;21987;-71
2022/11/04 00:51:26;;;;;;;11.60;5.90;;;;;;;9.03;100.00;99739.09;1732204;81;21014;-71
2022/11/04 00:53:52;;;;;;;;;;;;;;;8.97;100.00;99731.43;1748144;81;21054;-71
2022/11/04 00:56:19;;;;;;;13.93;5.58;;;;;;;8.90;100.00;99729.48;1728478;81;20170;-72
2022/11/04 00:58:45;;;;;;;;;;;;;;;8.89;100.00;99731.37;1747654;82;21939;-71
2022/11/04 01:01:16;;;;;;;10.40;5.30;;;;;;;8.99;100.00;99727.93;1739244;81;20838;-72
2022/11/04 01:03:47;;;;;;;8.40;4.58;;;;;;;8.94;100.00;99730.59;1741106;81;21304;-72
2022/11/04 01:06:14;;;;;;;8.45;5.17;;;;;;;8.86;100.00;99725.11;1742407;81;21482;-72
2022/11/04 01:08:40;;;;;;;;;;;;;;;8.84;100.00;99723.74;1747738;82;21129;-71
2022/11/04 01:11:08;;;;;;;11.43;5.15;;;;;;;8.84;100.00;99719.14;1734801;82;20160;-71
2022/11/04 01:13:35;;;;;;;12.45;5.60;;;;;;;8.79;100.00;99717.73;1732310;81;21439;-72
2022/11/04 01:16:03;;;;;;;10.95;4.90;;;;;;;8.76;100.00;99718.79;1726506;81;21999;-72
2022/11/04 01:18:30;;;;;;;11.45;4.80;;;;;;;8.72;100.00;99714.42;1736975;81;21590;-72
2022/11/04 01:21:05;;;;;;;9.93;4.58;;;;;;;8.73;100.00;99716.60;1737534;81;21040;-71
2022/11/04 01:23:33;;;;;;;8.08;4.37;;;;;;;8.73;100.00;99720.14;1739272;81;21837;-72
2022/11/04 01:25:59;;;;;;;9.38;4.70;;;;;;;8.74;100.00;99721.78;1737417;81;21010;-72
2022/11/04 01:28:26;;;;;;;13.22;5.33;;;;;;;8.71;100.00;99726.37;1729580;82;21139;-72
2022/11/04 01:30:52;;;;;;;10.70;4.70;;;;;;;8.66;100.00;99722.78;1741647;81;21033;-71
2022/11/04 01:33:19;;;;;;;;;;;;;;;8.68;100.00;99724.72;1743705;81;22008;-72
2022/11/04 01:35:47;;;;;;;6.25;3.87;;;;;;;8.73;100.00;99728.81;1753407;82;20174;-72
2022/11/04 01:38:14;;;;;;;10.35;4.80;;;;;;;8.70;100.00;99733.41;1751539;82;21095;-71
2022/11/04 01:40:42;;;;;;;8.63;5.08;;;;;;;8.67;100.00;99732.58;1752347;81;21578;-72
2022/11/04 01:43:18;;;;;;;8.25;4.42;;;;;;;8.66;100.00;99730.93;1745960;81;21166;-72
2022/11/04 01:45:57;;;;;;;7.78;4.28;;;;;;;8.71;100.00;99728.27;1753145;81;21008;-71
2022/11/04 01:48:28;;;;;;;8.40;5.03;;;;;;;8.76;100.00;99726.93;1744373;81;21153;-72
2022/11/04 01:50:55;;;;;;;8.00;4.65;;;;;;;8.71;100.00;99723.66;1747575;82;21014;-72
2022/11/04 01:53:33;;;;;;;6.60;4.15;;;;;;;8.73;100.00;99712.53;1748746;81;21062;-72
2022/11/04 01:56:10;;;;;;;9.45;5.05;;;;;;;8.78;100.00;99716.12;1753913;81;21050;-72
2022/11/04 01:58:34;;;;;;;9.63;5.17;;;;;;;8.76;100.00;99718.79;1750938;82;21030;-72
2022/11/04 02:01:01;;;;;;;11.03;5.28;;;;;;;8.70;100.00;99716.59;1747257;81;21022;-71
2022/11/04 02:03:32;;;;;;;8.13;4.70;;;;;;;8.69;100.00;99714.95;1737109;81;22463;-72
2022/11/04 02:06:00;;;;;;;9.33;5.12;;;;;;;8.71;100.00;99721.48;1748482;82;21057;-71
2022/11/04 02:08:26;;;;;;;8.45;4.83;;;;;;;8.67;100.00;99722.54;1752400;82;22356;-72
2022/11/04 02:10:58;;;;;;;11.38;5.05;;;;;;;8.63;100.00;99715.99;1748059;82;21097;-72
2022/11/04 02:13:27;;;;;;;8.33;4.85;;;;;;;8.65;100.00;99713.00;1739269;81;21683;-72
2022/11/04 02:16:16;;;;;;;9.20;5.25;;;;;;;8.74;100.00;99710.92;1747654;81;21178;-72
2022/11/04 02:19:19;;;;;;;13.53;6.17;;;;;;;8.80;100.00;99707.70;1748727;81;21101;-72
2022/11/04 02:22:13;;;;;;;9.58;6.22;;;;;;;8.78;100.00;99702.55;1737989;81;21088;-72
2022/11/04 02:25:08;;;;;;;10.88;5.62;;;;;;;8.76;100.00;99701.15;1740532;82;21128;-72
2022/11/04 02:27:40;;;;;;;9.30;4.90;;;;;;;8.83;100.00;99699.84;1751308;81;21009;-72
2022/11/04 02:30:16;;;;;;;7.75;4.42;;;;;;;8.92;100.00;99700.19;1751318;82;21014;-73
2022/11/04 02:33:10;;;;;;;10.20;4.50;;;;;;;8.91;100.00;99703.97;1747253;81;21053;-73
2022/11/04 02:36:06;;;;;;;8.35;5.08;;;;;;;8.82;100.00;99700.12;1737485;82;21071;-72
2022/11/04 02:38:54;;;;;;;9.08;4.90;;;;;;;8.72;100.00;99695.95;1744504;82;21122;-72
2022/11/04 02:41:36;;;;;;;9.60;4.30;;;;;;;8.76;100.00;99706.58;1686127;81;21084;-72
2022/11/04 02:44:20;;;;;;;10.00;4.03;;;;;;;8.78;100.00;99706.61;1738134;81;21095;-71
2022/11/04 02:47:03;;;;;;;8.98;3.80;;;;;;;8.78;100.00;99714.76;1737423;81;22266;-71
2022/11/04 02:49:58;;;;;;;9.90;4.45;;;;;;;8.72;100.00;99708.99;1741695;81;21146;-72
2022/11/04 02:52:48;;;;;;;8.33;4.30;;;;;;;8.69;100.00;99712.23;1748082;82;21026;-72
2022/11/04 02:55:20;;;;;;;12.95;4.97;;;;;;;8.68;100.00;99711.15;1748718;82;21106;-72
2022/11/04 02:57:46;;;;;;;7.92;4.60;;;;;;;8.56;100.00;99719.46;1738317;81;21552;-71
2022/11/04 03:00:13;;;;;;;8.40;5.12;;;;;;;8.48;100.00;99710.44;1749185;82;22128;-71
2022/11/04 03:02:47;;;;;;;8.33;5.00;;;;;;;8.49;100.00;99706.12;1721861;82;20994;-71
2022/11/04 03:05:17;;;;;;;8.20;4.37;;;;;;;8.48;100.00;99700.41;1753514;82;21550;-71
2022/11/04 03:07:45;;;;;;;10.28;4.45;;;;;;;8.46;100.00;99699.03;1747112;81;21027;-71
2022/11/04 03:10:35;;;;;;;6.45;4.35;;;;;;;8.40;100.00;99698.16;1748315;81;21018;-71
2022/11/04 03:13:17;;;;;;;7.30;4.50;;;;;;;8.43;100.00;99699.55;1717548;82;21407;-70
2022/11/04 03:15:50;;;;;;;10.25;4.75;;;;;;;8.52;100.00;99695.28;1717392;81;21046;-71
2022/11/04 03:18:32;;;;;;;8.23;4.30;;;;;;;8.50;100.00;99690.66;1745753;81;21914;-70
2022/11/04 03:21:01;;;;;;;8.85;4.42;;;;;;;8.48;100.00;99699.05;1751039;82;21037;-70
2022/11/04 03:23:28;;;;;;;10.60;4.33;;;;;;;8.50;100.00;99705.02;1751709;81;21165;-70
2022/11/04 03:25:59;;;;;;;8.95;4.30;;;;;;;8.56;100.00;99697.75;1749122;81;21024;-70
2022/11/04 03:28:46;;;;;;;8.63;4.58;;;;;;;8.54;100.00;99697.75;1751173;81;21176;-70
2022/11/04 03:31:21;;;;;;;9.40;4.65;;;;;;;8.45;100.00;99692.78;1744763;81;21054;-70
2022/11/04 03:33:50;;;;;;;9.03;4.17;;;;;;;8.39;100.00;99687.58;1736829;82;21078;-71
2022/11/04 03:36:17;;;;;;;10.95;4.25;;;;;;;8.45;100.00;99685.19;1732990;81;20994;-72
2022/11/04 03:38:43;;;;;;;9.03;4.67;;;;;;;8.51;100.00;99684.13;1752613;81;21412;-70
2022/11/04 03:41:16;;;;;;;9.58;4.53;;;;;;;8.48;100.00;99686.84;1740221;81;21061;-71
2022/11/04 03:43:42;;;;;;;10.25;5.40;;;;;;;8.42;100.00;99685.17;1744649;82;21500;-70
2022/11/04 03:46:08;;;;;;;9.58;4.35;;;;;;;8.44;100.00;99683.00;1705577;81;20962;-70
2022/11/04 03:48:35;;;;;;;;;;;;;;;8.53;100.00;99687.42;1754266;82;21132;-71
2022/11/04 03:51:02;;;;;;;7.45;4.42;;;;;;;8.52;100.00;99684.95;1743324;81;20183;-72
2022/11/04 03:53:28;;;;;;;11.78;4.42;;;;;;;8.40;100.00;99686.48;1747352;81;21062;-71
2022/11/04 03:56:07;;;;;;;;;;;;;;;8.36;100.00;99692.97;1752314;82;20994;-72
2022/11/04 03:58:43;;;;;;;7.30;4.35;;;;;;;8.42;100.00;99697.91;1744228;82;20190;-71
2022/11/04 04:01:26;;;;;;;10.68;4.97;;;;;;;8.43;100.00;99688.70;1748612;81;21507;-71
2022/11/04 04:04:02;;;;;;;7.33;4.85;;;;;;;8.47;100.00;99691.16;1744011;81;21133;-70
2022/11/04 04:06:33;;;;;;;10.00;4.72;;;;;;;8.44;100.00;99693.86;1753491;81;20967;-71
2022/11/04 04:09:14;;;;;;;12.68;5.45;;;;;;;8.40;100.00;99698.16;1750739;82;21657;-71
2022/11/04 04:12:07;;;;;;;7.97;4.62;;;;;;;8.41;100.00;99697.09;1741493;82;20994;-71
2022/11/04 04:14:43;;;;;;;8.53;4.90;;;;;;;8.46;100.00;99687.65;1749313;81;21082;-71
2022/11/04 04:17:22;;;;;;;11.73;5.15;;;;;;;8.50;100.00;99692.02;1751631;81;21074;-71
2022/11/04 04:19:53;;;;;;;6.30;4.47;;;;;;;8.46;100.00;99687.65;1751772;81;21149;-70
2022/11/04 04:22:28;;;;;;;10.45;5.00;;;;;;;8.40;100.00;99687.30;1742213;81;21486;-70
2022/11/04 04:27:43;;;;;;;8.50;4.85;;;;;;;8.48;100.00;99686.02;1745885;81;21014;-70
2022/11/04 04:30:12;;;;;;;10.68;5.28;;;;;;;8.39;100.00;99684.34;1745145;81;21004;-71
2022/11/04 04:32:52;;;;;;;11.03;5.50;;;;;;;8.39;100.00;99686.23;1707714;83;20991;-71
2022/11/04 04:35:41;;;;;;;11.60;5.33;;;;;;;8.41;100.00;99688.95;1742360;82;21594;-71
2022/11/04 04:47:20;;;;;;;10.68;5.67;;;;;;;8.43;100.00;99684.63;1742040;82;21815;-71
2022/11/04 04:49:52;;;;;;;10.72;5.20;;;;;;;8.52;100.00;99693.09;1742968;81;21042;-71
2022/11/04 04:52:18;;;;;;;7.50;4.95;;;;;;;8.64;100.00;99694.57;1743532;81;21016;-71
2022/11/04 04:54:45;;;;;;;;;;;;;;;8.65;100.00;99694.83;1735265;81;21151;-71
2022/11/04 04:57:11;;;;;;;9.65;4.95;;;;;;;8.62;100.00;99705.38;1744084;82;20175;-72
2022/11/04 04:59:38;;;;;;;10.90;5.75;;;;;;;8.48;100.00;99704.47;1740136;81;21696;-71
2022/11/04 05:02:04;;;;;;;9.63;4.97;;;;;;;8.54;100.00;99708.03;1734726;81;21366;-71
2022/11/04 05:04:31;;;;;;;9.63;5.65;;;;;;;8.60;100.00;99705.66;1740332;82;21099;-71
2022/11/04 05:06:57;;;;;;;14.75;6.75;;;;;;;8.61;100.00;99714.62;1744177;82;20964;-71
2022/11/04 05:09:24;;;;;;;;;;;;;;;8.49;100.00;99723.75;1724716;81;21408;-71
2022/11/04 05:11:52;;;;;;;12.73;6.15;;;;;;;8.44;100.00;99726.41;1741478;81;20130;-71
2022/11/04 05:14:19;;;;;;;9.28;5.20;;;;;;;8.41;100.00;99731.53;1723223;81;21098;-71
2022/11/04 05:16:45;;;;;;;9.50;5.70;;;;;;;8.42;100.00;99727.75;1731954;81;21548;-70
2022/11/04 05:19:13;;;;;;;8.78;5.53;;;;;;;8.35;100.00;99729.32;1746180;82;21078;-70
2022/11/04 05:21:40;;;;;;;10.55;5.00;;;;;;;8.30;100.00;99724.38;1735222;81;21089;-71
2022/11/04 05:24:09;;;;;;;11.43;5.70;;;;;;;8.34;100.00;99727.67;1738915;81;21536;-70
2022/11/04 05:26:36;;;;;;;8.55;4.90;;;;;;;8.42;100.00;99724.50;1742980;81;21051;-71
2022/11/04 05:29:02;;;;;;;11.18;6.10;;;;;;;8.39;100.00;99725.02;1742933;81;21087;-71
2022/11/04 05:31:29;;;;;;;8.90;5.70;;;;;;;8.39;100.00;99726.91;1737522;82;21762;-70
2022/11/04 05:33:57;;;;;;;9.73;5.00;;;;;;;8.39;100.00;99732.34;1743209;81;21110;-70
2022/11/04 05:36:24;;;;;;;9.68;5.22;;;;;;;8.43;100.00;99732.90;1715432;82;21000;-70
2022/11/04 05:38:52;;;;;;;9.00;6.03;;;;;;;8.42;100.00;99731.82;1706896;82;21098;-70
2022/11/04 05:41:24;;;;;;;9.18;5.97;;;;;;;8.39;100.00;99732.34;1710641;82;21039;-71
2022/11/04 05:43:53;;;;;;;10.15;5.83;;;;;;;8.33;100.00;99731.98;1706104;82;21113;-70
2022/11/04 05:46:21;;;;;;;9.63;5.72;;;;;;;8.37;100.00;99731.76;1703701;82;21009;-70
2022/11/04 05:48:48;;;;;;;12.15;6.70;;;;;;;8.44;100.00;99737.26;1715750;83;21679;-70
2022/11/04 05:51:15;;;;;;;9.53;6.12;;;;;;;8.46;100.00;99735.13;1714647;83;21003;-70
2022/11/04 05:53:42;;;;;;;11.70;6.62;;;;;;;8.42;100.00;99738.06;1704857;83;21085;-70
2022/11/04 05:56:08;;;;;;;9.90;5.72;;;;;;;8.41;100.00;99731.53;1707233;82;21501;-70
2022/11/04 05:58:36;;;;;;;11.95;6.55;;;;;;;8.45;100.00;99730.77;1708052;83;21065;-70
2022/11/04 06:01:26;;;;;;;9.58;6.30;;;;;;;8.47;100.00;99738.09;1706444;82;21066;-70
2022/11/04 06:03:54;;;;;;;11.05;6.47;;;;;;;8.48;100.00;99737.56;1712488;83;21083;-70
2022/11/04 06:06:21;;;;;;;12.03;5.85;;;;;;;8.43;100.00;99728.83;1710137;83;21035;-71
2022/11/04 06:08:49;;;;;;;8.60;4.95;;;;;;;8.47;100.00;99734.02;1709619;82;21079;-70
2022/11/04 06:11:17;;;;;;;9.30;5.30;;;;;;;8.58;100.00;99736.28;1698782;83;21018;-70
2022/11/04 06:13:43;;;;;;;10.08;5.42;;;;;;;8.59;100.00;99735.75;1707162;82;21051;-70
2022/11/04 06:16:10;;;;;;;8.35;4.90;;;;;;;8.56;100.00;99737.09;1702414;82;20992;-71
2022/11/04 06:18:37;;;;;;;10.78;4.95;;;;;;;8.59;100.00;99736.58;1704370;82;21091;-71
2022/11/04 06:21:24;;;;;;;7.83;4.97;;;;;;;8.66;100.00;99741.25;1697387;82;20944;-71
2022/11/04 06:23:51;;;;;;;12.70;5.55;;;;;;;8.73;100.00;99745.92;1708812;83;21055;-71
2022/11/04 06:26:18;;;;;;;8.38;5.50;;;;;;;8.74;100.00;99735.35;1703434;83;21520;-70
2022/11/04 06:28:46;;;;;;;8.13;5.28;;;;;;;8.73;100.00;99734.23;1707434;83;21702;-71
2022/11/04 06:31:13;;;;;;;7.10;4.87;;;;;;;8.75;100.00;99744.31;1707872;82;21586;-73
2022/11/04 06:33:41;;;;;;;9.23;5.17;;;;;;;8.83;100.00;99742.45;1707061;82;21102;-74
2022/11/04 10:21:10;;;;;;;13.88;9.85;;;;;;;8.06;100.00;99709.47;1789743;78;23264;-71
2022/11/04 10:23:45;;;;;;;13.25;8.68;;;;;;;8.24;100.00;99721.30;1741288;80;21108;-72
2022/11/04 10:26:22;;;;;;;12.68;7.85;;;;;;;8.50;100.00;99725.37;1743524;81;21704;-71
2022/11/04 10:29:06;;;;;;;11.35;7.80;;;;;;;8.68;100.00;99726.08;1736583;80;22206;-71
2022/11/04 10:31:33;;;;;;;11.53;7.85;;;;;;;8.79;100.00;99723.69;1729231;80;21124;-70
2022/11/04 10:34:07;;;;;;;9.40;7.15;;;;;;;8.90;100.00;99724.05;1750648;80;21925;-71
2022/11/04 10:36:35;;;;;;;12.68;7.67;;;;;;;9.07;100.00;99722.55;1752253;80;21024;-70
2022/11/04 10:39:05;;;;;;;13.53;7.65;;;;;;;9.22;100.00;99711.75;1747508;80;21099;-70
2022/11/04 10:41:36;;;;;;;11.00;7.60;;;;;;;9.27;100.00;99702.29;1758749;80;21094;-71
2022/11/04 10:44:06;;;;;;;13.88;8.35;;;;;;;9.35;100.00;99701.23;1753358;80;21156;-70
2022/11/04 10:47:06;;;;;;;11.48;7.62;;;;;;;9.42;100.00;99688.78;1740882;81;21022;-70
2022/11/04 10:50:13;;;;;;;11.08;6.83;;;;;;;9.51;100.00;99687.19;1680777;80;21115;-71
2022/11/04 10:52:40;;;;;;;10.85;7.20;;;;;;;9.49;100.00;99684.72;1742071;80;21038;-69
2022/11/04 10:55:15;;;;;;;10.98;6.67;;;;;;;9.46;100.00;99687.97;1772995;80;20994;-69
2022/11/04 10:57:41;;;;;;;11.65;6.42;;;;;;;9.49;100.00;99686.64;1767178;80;21583;-70
2022/11/04 11:00:10;;;;;;;9.48;7.00;;;;;;;9.59;100.00;99683.14;1768268;80;21082;-70
2022/11/04 11:03:01;;;;;;;10.98;7.65;;;;;;;9.67;100.00;99677.20;1764290;79;23440;-71
2022/11/04 11:05:29;;;;;;;17.35;8.38;;;;;;;9.64;100.00;99677.70;1722454;82;21067;-71
2022/11/04 11:07:56;;;;;;;;;;;;;;;9.70;100.00;99674.77;1727809;83;21090;-71
2022/11/04 11:10:32;;;;;;;10.93;6.83;;;;;;;9.82;100.00;99678.58;1725218;82;20167;-71
2022/11/04 11:13:06;;;;;;;10.00;6.33;;;;;;;9.79;100.00;99678.58;1724725;82;21576;-72
2022/11/04 11:15:36;;;;;;;13.10;7.42;;;;;;;9.77;100.00;99671.78;1703781;83;21026;-71
2022/11/04 11:18:20;;;;;;;12.58;7.72;;;;;;;9.73;100.00;99662.53;1696794;82;21066;-71
2022/11/04 11:20:49;;;;;;;10.48;7.30;;;;;;;9.80;100.00;99657.66;1719974;82;21070;-71
2022/11/04 11:23:38;;;;;;;10.40;6.80;;;;;;;9.83;100.00;99662.01;1703466;82;21535;-71
2022/11/04 11:26:18;;;;;;;11.43;7.10;;;;;;;9.68;100.00;99659.24;1716844;83;21098;-69
2022/11/04 11:28:55;;;;;;;11.65;6.70;;;;;;;9.63;100.00;99656.53;1724811;82;21117;-69
2022/11/04 11:31:23;;;;;;;9.30;6.58;;;;;;;9.76;100.00;99659.27;1721350;82;21433;-69
2022/11/04 11:33:56;;;;;;;9.88;6.70;;;;;;;9.85;100.00;99661.19;1717095;82;21061;-69
2022/11/04 11:36:26;;;;;;;9.38;7.00;;;;;;;9.78;100.00;99657.08;1680725;83;21081;-69
2022/11/04 11:39:15;;;;;;;11.35;6.83;;;;;;;9.72;100.00;99660.34;1682847;82;21101;-69
2022/11/04 11:42:00;;;;;;;11.25;6.60;;;;;;;9.80;100.00;99659.02;1691091;82;21070;-69
2022/11/04 11:44:46;;;;;;;11.30;6.25;;;;;;;9.88;100.00;99654.41;1672705;83;21063;-69
2022/11/04 11:47:27;;;;;;;9.43;6.72;;;;;;;9.82;100.00;99650.03;1679118;83;21076;-69
2022/11/04 11:50:19;;;;;;;10.43;6.28;;;;;;;9.71;100.00;99652.45;1667023;86;21043;-69
2022/11/04 11:52:47;;;;;;;10.88;5.45;;;;;;;9.72;100.00;99656.80;1668648;84;21404;-69
2022/11/04 11:55:28;;;;;;;10.03;6.40;;;;;;;9.76;100.00;99653.30;1693851;83;20987;-69
2022/11/04 11:58:31;;;;;;;8.38;5.80;;;;;;;9.74;100.00;99643.78;1665767;84;21086;-69
2022/11/04 12:01:21;;;;;;;12.05;7.35;;;;;;;9.73;100.00;99653.02;1694685;84;21031;-69
2022/11/04 12:03:48;;;;;;;9.58;6.30;;;;;;;9.57;100.00;99646.70;1673018;84;21096;-69
2022/11/04 12:06:32;;;;;;;11.10;5.78;;;;;;;9.53;100.00;99648.89;1667932;85;21605;-69
2022/11/04 12:09:11;;;;;;;9.73;5.25;;;;;;;9.50;100.00;99643.42;1691925;84;21090;-69
2022/11/04 12:12:16;;;;;;;9.95;5.83;;;;;;;9.48;100.00;99648.31;1653944;85;21549;-69
2022/11/04 12:14:59;;;;;;;10.85;7.83;;;;;;;9.41;100.00;99650.47;1669552;84;20940;-68
2022/11/04 12:17:43;;;;;;;11.65;7.08;;;;;;;9.33;100.00;99642.82;1673732;85;21067;-69
2022/11/04 12:20:35;;;;;;;10.10;6.92;;;;;;;9.32;100.00;99648.79;1660395;85;21526;-69
2022/11/04 12:23:10;;;;;;;10.20;6.55;;;;;;;9.33;100.00;99638.74;1680216;84;21075;-71
2022/11/04 12:26:13;;;;;;;9.93;6.60;;;;;;;9.32;100.00;99642.53;1678060;84;21055;-70
2022/11/04 12:29:26;;;;;;;11.45;6.70;;;;;;;9.29;100.00;99643.07;1669019;85;21098;-69
2022/11/04 12:32:17;;;;;;;8.25;5.45;;;;;;;9.27;100.00;99633.84;1680034;85;21496;-69
2022/11/04 12:35:18;;;;;;;7.75;5.80;;;;;;;9.32;100.00;99640.64;1682805;85;21059;-70
2022/11/04 12:38:33;;;;;;;9.00;5.50;;;;;;;9.30;100.00;99640.10;1675979;85;21695;-70
2022/11/04 12:41:28;;;;;;;9.85;6.33;;;;;;;9.18;100.00;99644.92;1677311;85;21577;-70
2022/11/04 12:44:19;;;;;;;9.90;6.17;;;;;;;9.20;100.00;99637.34;1669763;85;21111;-70
2022/11/04 12:47:25;;;;;;;8.13;5.60;;;;;;;9.32;100.00;99653.40;1662735;85;21441;-70
2022/11/04 12:50:22;;;;;;;10.90;6.15;;;;;;;9.27;100.00;99648.78;1672526;85;22190;-70
2022/11/04 12:53:14;;;;;;;8.98;5.87;;;;;;;9.19;100.00;99653.36;1639089;87;21100;-70
2022/11/04 12:55:56;;;;;;;8.78;6.25;;;;;;;9.16;100.00;99655.25;1665211;85;21040;-70
2022/11/04 12:58:43;;;;;;;11.65;6.53;;;;;;;9.16;100.00;99659.86;1674264;85;21561;-70
2022/11/04 13:01:35;;;;;;;9.75;6.62;;;;;;;9.08;100.00;99661.70;1679955;85;20971;-70
2022/11/04 13:04:12;;;;;;;8.95;6.22;;;;;;;8.97;100.00;99668.98;1679642;84;21118;-70
2022/11/04 13:06:44;;;;;;;;;;;;;;;8.96;100.00;99664.66;1681560;84;21490;-70
2022/11/04 13:09:37;;;;;;;7.92;5.22;;;;;;;9.00;100.00;99667.09;1685931;85;20133;-70
2022/11/04 13:12:11;;;;;;;12.13;6.47;;;;;;;8.99;100.00;99662.23;1680639;84;21099;-70
2022/11/04 13:14:51;;;;;;;11.10;7.55;;;;;;;9.07;100.00;99665.53;1678929;84;21550;-70
2022/11/04 13:17:34;;;;;;;9.80;7.55;;;;;;;9.14;100.00;99656.60;1668375;85;21127;-70
2022/11/04 13:20:13;;;;;;;10.35;6.83;;;;;;;9.29;100.00;99662.08;1661347;85;20980;-69
2022/11/04 13:22:43;;;;;;;11.05;6.80;;;;;;;9.40;100.00;99654.26;1668156;85;21665;-69
2022/11/04 13:25:22;;;;;;;13.22;7.12;;;;;;;9.42;100.00;99648.82;1673633;84;21325;-69
2022/11/04 13:27:48;;;;;;;9.70;6.75;;;;;;;9.44;100.00;99660.80;1661713;85;21619;-69
2022/11/04 13:30:35;;;;;;;10.65;6.87;;;;;;;9.36;100.00;99658.58;1665652;85;21104;-70
2022/11/04 13:33:41;;;;;;;12.28;7.75;;;;;;;9.32;100.00;99652.86;1681899;85;21626;-69
2022/11/04 13:36:21;;;;;;;11.43;7.47;;;;;;;9.29;100.00;99656.66;1681207;85;21059;-69
2022/11/04 13:39:24;;;;;;;9.38;7.67;;;;;;;9.23;100.00;99661.80;1647745;87;21692;-69
2022/11/04 13:42:27;;;;;;;8.93;7.17;;;;;;;9.25;100.00;99656.36;1649033;85;21129;-69
2022/11/04 13:44:57;;;;;;;9.60;6.95;;;;;;;9.32;100.00;99653.40;1650289;85;21060;-69
2022/11/04 13:47:30;;;;;;;9.05;6.45;;;;;;;9.30;100.00;99652.33;1644069;85;21075;-67
2022/11/04 13:49:57;;;;;;;11.75;7.33;;;;;;;9.24;100.00;99656.65;1632585;86;20998;-68
2022/11/04 13:52:29;;;;;;;9.38;6.70;;;;;;;9.12;100.00;99664.18;1673326;85;21971;-68
2022/11/04 13:54:59;;;;;;;11.05;6.72;;;;;;;9.06;100.00;99676.92;1672893;85;20969;-70
2022/11/04 13:57:28;;;;;;;9.95;7.05;;;;;;;9.09;100.00;99666.07;1640123;85;21719;-69
2022/11/04 14:00:18;;;;;;;11.88;7.03;;;;;;;9.11;100.00;99669.33;1622851;87;21592;-69
2022/11/04 14:02:48;;;;;;;18.17;11.15;;;;;;;9.06;100.00;99672.85;1679511;83;21142;-68
2022/11/04 14:05:34;;;;;;;11.00;7.97;;;;;;;8.95;100.00;99671.98;1680759;83;21533;-68
2022/11/04 14:08:09;;;;;;;13.10;8.63;;;;;;;8.84;100.00;99666.20;1663335;85;21122;-70
2022/11/04 14:10:55;;;;;;;16.17;8.88;;;;;;;8.86;100.00;99665.92;1672206;85;21155;-70
2022/11/04 14:13:36;;;;;;;15.32;9.10;;;;;;;8.91;100.00;99665.97;1669494;84;21083;-69
2022/11/04 14:16:05;;;;;;;21.48;14.15;;;;;;;8.90;100.00;99664.33;1673061;84;21051;-69
2022/11/04 14:18:41;;;;;;;29.82;16.77;;;;;;;8.89;100.00;99673.00;1671120;85;21113;-70
2022/11/04 14:21:13;;;;;;;32.45;15.83;;;;;;;8.89;100.00;99663.50;1665338;84;21082;-69
2022/11/04 14:23:43;;;;;;;19.65;10.78;;;;;;;8.90;100.00;99665.69;1672997;84;21091;-70
2022/11/04 14:26:14;;;;;;;11.20;7.75;;;;;;;8.88;100.00;99671.92;1669898;85;21537;-69
2022/11/04 18:18:05;;;;;;;24.45;17.75;;;;;;;6.29;100.00;99705.17;1774998;79;22929;-74
2022/11/04 18:20:34;;;;;;;16.80;12.68;;;;;;;6.41;100.00;99719.42;1749290;80;21442;-74
2022/11/04 18:23:02;;;;;;;20.45;15.08;;;;;;;6.67;100.00;99715.78;1724348;81;21081;-74
2022/11/04 18:25:31;;;;;;;18.82;13.00;;;;;;;6.87;100.00;99717.47;1753436;80;21066;-73
2022/11/04 18:27:59;;;;;;;19.77;13.15;;;;;;;7.04;100.00;99714.73;1721264;81;21045;-74
2022/11/04 18:30:28;;;;;;;18.52;13.48;;;;;;;7.19;100.00;99708.97;1755355;80;21003;-74
2022/11/04 18:32:57;;;;;;;20.60;13.48;;;;;;;7.33;100.00;99703.47;1725774;81;20984;-74
2022/11/04 18:35:26;;;;;;;24.63;17.25;;;;;;;7.42;100.00;99706.05;1724769;80;21066;-74
2022/11/04 18:37:55;;;;;;;26.17;17.87;;;;;;;7.54;100.00;99706.45;1725054;80;21042;-72
2022/11/04 18:40:24;;;;;;;24.12;16.48;;;;;;;7.68;100.00;99700.41;1688381;81;20989;-72
2022/11/04 18:42:53;;;;;;;21.52;15.80;;;;;;;7.76;100.00;99701.84;1726667;81;21006;-73
2022/11/04 18:45:23;;;;;;;14.63;9.98;;;;;;;7.78;100.00;99697.80;1726156;81;21007;-74
2022/11/04 18:47:52;;;;;;;12.98;9.20;;;;;;;7.84;100.00;99702.19;1755425;80;21022;-73
2022/11/04 18:50:20;;;;;;;13.20;10.23;;;;;;;7.99;100.00;99711.03;1726396;81;20999;-72
2022/11/04 18:52:50;;;;;;;13.03;10.28;;;;;;;8.04;100.00;99702.96;1701452;80;21054;-73
2022/11/04 18:55:18;;;;;;;15.23;11.12;;;;;;;8.08;100.00;99708.12;1721997;81;21477;-73
2022/11/04 18:57:47;;;;;;;11.40;8.73;;;;;;;8.15;100.00;99704.67;1753881;80;20987;-72
2022/11/04 19:00:16;;;;;;;13.53;9.10;;;;;;;8.24;100.00;99709.10;1693031;80;21483;-73
2022/11/04 19:02:46;;;;;;;15.65;10.05;;;;;;;8.23;100.00;99706.92;1691603;81;21038;-72
2022/11/04 19:05:14;;;;;;;15.00;10.38;;;;;;;8.19;100.00;99703.62;1750031;80;20982;-73
2022/11/04 19:07:42;;;;;;;14.70;9.43;;;;;;;8.20;100.00;99705.27;1727808;80;21034;-72
2022/11/04 19:10:11;;;;;;;12.33;8.35;;;;;;;8.25;100.00;99705.33;1750387;80;21069;-73
2022/11/04 19:15:26;;;;;;;12.18;8.03;;;;;;;8.19;100.00;99708.51;1730980;80;20955;-73
2022/11/04 19:17:55;;;;;;;12.75;8.40;;;;;;;8.10;100.00;99705.17;1699532;82;21007;-73
2022/11/04 19:20:25;;;;;;;14.33;9.55;;;;;;;7.99;100.00;99702.89;1748925;81;20964;-73
2022/11/04 19:22:53;;;;;;;13.08;8.68;;;;;;;7.94;100.00;99710.96;1660250;83;21389;-73
2022/11/04 19:25:21;;;;;;;12.78;7.83;;;;;;;7.97;100.00;99715.90;1746827;81;21079;-73
2022/11/04 19:27:50;;;;;;;11.25;7.97;;;;;;;7.97;100.00;99718.61;1713902;82;21377;-73
2022/11/04 19:30:18;;;;;;;11.18;8.73;;;;;;;7.90;100.00;99718.78;1683487;81;21085;-73
2022/11/04 19:32:46;;;;;;;13.85;9.45;;;;;;;7.84;100.00;99718.45;1748171;81;21019;-73
2022/11/04 19:35:17;;;;;;;13.38;9.55;;;;;;;7.88;100.00;99720.13;1722095;82;20987;-73
2022/11/04 19:37:47;;;;;;;14.28;9.73;;;;;;;7.97;100.00;99724.03;1714164;82;20972;-74
2022/11/04 19:40:14;;;;;;;13.83;9.53;;;;;;;7.96;100.00;99721.86;1746399;81;20939;-74
2022/11/04 19:45:25;;;;;;;10.43;7.55;;;;;;;7.83;100.00;99726.30;1745179;80;20944;-75
2022/11/04 19:47:51;;;;;;;14.68;10.05;;;;;;;7.82;100.00;99727.92;1742056;80;21067;-75
2022/11/04 19:50:18;;;;;;;20.62;12.63;;;;;;;7.88;100.00;99732.31;1746996;80;21483;-76
2022/11/04 19:52:44;;;;;;;12.03;8.55;;;;;;;7.81;100.00;99729.81;1747763;80;21473;-76
2022/11/04 19:55:11;;;;;;;;;;;;;;;7.75;100.00;99727.30;1744236;81;20979;-76
2022/11/04 19:57:38;;;;;;;11.87;8.00;;;;;;;7.72;100.00;99728.59;1738692;82;20115;-77
2022/11/04 20:00:06;;;;;;;13.22;9.28;;;;;;;7.65;100.00;99731.25;1747342;82;21058;-76
2022/11/04 20:02:35;;;;;;;15.15;9.10;;;;;;;7.66;100.00;99730.16;1716413;80;20983;-76
2022/11/04 20:05:01;;;;;;;19.87;12.37;;;;;;;7.74;100.00;99734.60;1750215;82;21050;-76
2022/11/04 20:07:28;;;;;;;15.68;9.08;;;;;;;7.73;100.00;99726.71;1746793;81;21016;-76
2022/11/04 20:09:55;;;;;;;12.30;8.90;;;;;;;7.69;100.00;99729.64;1766654;80;21651;-76
2022/11/04 20:15:08;;;;;;;10.93;7.85;;;;;;;7.77;100.00;99733.27;1741317;82;21058;-76
2022/11/04 20:17:35;;;;;;;11.85;8.05;;;;;;;7.78;100.00;99732.20;1717192;82;21023;-76